sensor_id;sensor_type;location;lat;lon;timestamp;temperature;humidity
22635;DHT22;11484;50.858;4.384;2023-07-08T00:00:39;24.10;65.00
22635;DHT22;11484;50.858;4.384;2023-07-08T00:03:04;24.10;65.30
22635;DHT22;11484;50.858;4.384;2023-07-08T00:05:30;24.10;65.80
22635;DHT22;11484;50.858;4.384;2023-07-08T00:07:56;24.00;66.00
22635;DHT22;11484;50.858;4.384;2023-07-08T00:10:24;24.00;66.30
22635;DHT22;11484;50.858;4.384;2023-07-08T00:12:53;24.00;66.40
22635;DHT22;11484;50.858;4.384;2023-07-08T00:15:28;24.00;67.40
22635;DHT22;11484;50.858;4.384;2023-07-08T00:17:54;23.90;66.70
22635;DHT22;11484;50.858;4.384;2023-07-08T00:20:33;23.90;67.10
22635;DHT22;11484;50.858;4.384;2023-07-08T00:23:00;23.90;67.10
22635;DHT22;11484;50.858;4.384;2023-07-08T00:25:27;23.80;67.30
22635;DHT22;11484;50.858;4.384;2023-07-08T00:27:53;23.70;67.70
22635;DHT22;11484;50.858;4.384;2023-07-08T00:30:27;23.60;68.20
22635;DHT22;11484;50.858;4.384;2023-07-08T00:32:54;23.60;68.20
22635;DHT22;11484;50.858;4.384;2023-07-08T00:35:38;23.60;68.50
22635;DHT22;11484;50.858;4.384;2023-07-08T00:38:25;23.50;68.60
22635;DHT22;11484;50.858;4.384;2023-07-08T00:41:14;23.50;68.90
22635;DHT22;11484;50.858;4.384;2023-07-08T00:43:50;23.50;68.70
22635;DHT22;11484;50.858;4.384;2023-07-08T00:51:48;23.60;69.30
22635;DHT22;11484;50.858;4.384;2023-07-08T00:54:16;23.50;69.50
22635;DHT22;11484;50.858;4.384;2023-07-08T00:56:44;23.50;69.70
22635;DHT22;11484;50.858;4.384;2023-07-08T01:01:48;23.50;70.20
22635;DHT22;11484;50.858;4.384;2023-07-08T01:04:25;23.40;70.40
22635;DHT22;11484;50.858;4.384;2023-07-08T01:06:56;23.50;70.60
22635;DHT22;11484;50.858;4.384;2023-07-08T01:09:40;23.40;70.60
22635;DHT22;11484;50.858;4.384;2023-07-08T01:12:12;23.40;70.80
22635;DHT22;11484;50.858;4.384;2023-07-08T01:14:41;23.40;71.20
22635;DHT22;11484;50.858;4.384;2023-07-08T01:17:08;23.40;71.60
22635;DHT22;11484;50.858;4.384;2023-07-08T01:19:40;23.30;71.50
22635;DHT22;11484;50.858;4.384;2023-07-08T01:22:07;23.20;71.60
22635;DHT22;11484;50.858;4.384;2023-07-08T01:24:36;23.20;71.80
22635;DHT22;11484;50.858;4.384;2023-07-08T01:27:05;23.10;71.90
22635;DHT22;11484;50.858;4.384;2023-07-08T01:29:32;23.00;72.00
22635;DHT22;11484;50.858;4.384;2023-07-08T01:31:58;22.90;72.50
22635;DHT22;11484;50.858;4.384;2023-07-08T01:34:32;22.90;72.70
22635;DHT22;11484;50.858;4.384;2023-07-08T01:36:59;23.00;72.80
22635;DHT22;11484;50.858;4.384;2023-07-08T01:39:31;23.00;73.00
22635;DHT22;11484;50.858;4.384;2023-07-08T01:41:57;23.00;73.40
22635;DHT22;11484;50.858;4.384;2023-07-08T01:44:32;23.00;73.60
22635;DHT22;11484;50.858;4.384;2023-07-08T01:47:08;22.90;74.10
22635;DHT22;11484;50.858;4.384;2023-07-08T01:49:37;22.90;74.50
22635;DHT22;11484;50.858;4.384;2023-07-08T01:52:05;22.80;75.00
22635;DHT22;11484;50.858;4.384;2023-07-08T01:54:31;22.70;75.40
22635;DHT22;11484;50.858;4.384;2023-07-08T01:56:57;22.70;75.80
22635;DHT22;11484;50.858;4.384;2023-07-08T01:59:24;22.70;76.10
22635;DHT22;11484;50.858;4.384;2023-07-08T02:01:50;22.70;76.20
22635;DHT22;11484;50.858;4.384;2023-07-08T02:04:20;22.60;75.90
22635;DHT22;11484;50.858;4.384;2023-07-08T02:06:57;22.70;76.20
22635;DHT22;11484;50.858;4.384;2023-07-08T02:09:24;22.70;76.40
22635;DHT22;11484;50.858;4.384;2023-07-08T02:11:51;22.70;77.10
22635;DHT22;11484;50.858;4.384;2023-07-08T02:14:17;22.70;77.30
22635;DHT22;11484;50.858;4.384;2023-07-08T02:16:42;22.70;77.80
22635;DHT22;11484;50.858;4.384;2023-07-08T02:19:09;22.70;78.10
22635;DHT22;11484;50.858;4.384;2023-07-08T02:21:35;22.60;78.50
22635;DHT22;11484;50.858;4.384;2023-07-08T02:24:01;22.60;78.80
22635;DHT22;11484;50.858;4.384;2023-07-08T02:26:27;22.50;79.40
22635;DHT22;11484;50.858;4.384;2023-07-08T02:28:52;22.40;79.90
22635;DHT22;11484;50.858;4.384;2023-07-08T02:31:18;22.30;80.80
22635;DHT22;11484;50.858;4.384;2023-07-08T02:33:44;22.20;81.30
22635;DHT22;11484;50.858;4.384;2023-07-08T02:36:09;22.20;81.90
22635;DHT22;11484;50.858;4.384;2023-07-08T02:38:35;22.30;82.30
22635;DHT22;11484;50.858;4.384;2023-07-08T02:41:01;22.30;82.50
22635;DHT22;11484;50.858;4.384;2023-07-08T02:43:26;22.30;82.60
22635;DHT22;11484;50.858;4.384;2023-07-08T02:45:52;22.30;82.90
22635;DHT22;11484;50.858;4.384;2023-07-08T02:48:19;22.30;82.80
22635;DHT22;11484;50.858;4.384;2023-07-08T02:50:45;22.40;83.10
22635;DHT22;11484;50.858;4.384;2023-07-08T02:53:10;22.30;83.20
22635;DHT22;11484;50.858;4.384;2023-07-08T02:55:36;22.40;83.70
22635;DHT22;11484;50.858;4.384;2023-07-08T02:58:02;22.40;84.30
22635;DHT22;11484;50.858;4.384;2023-07-08T03:00:27;22.30;84.30
22635;DHT22;11484;50.858;4.384;2023-07-08T03:02:54;22.30;84.70
22635;DHT22;11484;50.858;4.384;2023-07-08T03:05:19;22.20;84.70
22635;DHT22;11484;50.858;4.384;2023-07-08T03:07:45;22.30;85.10
22635;DHT22;11484;50.858;4.384;2023-07-08T03:10:10;22.30;85.50
22635;DHT22;11484;50.858;4.384;2023-07-08T03:12:36;22.20;85.30
22635;DHT22;11484;50.858;4.384;2023-07-08T03:15:02;22.20;85.80
22635;DHT22;11484;50.858;4.384;2023-07-08T03:17:28;22.20;86.00
22635;DHT22;11484;50.858;4.384;2023-07-08T03:19:54;22.20;86.10
22635;DHT22;11484;50.858;4.384;2023-07-08T03:22:19;22.20;86.80
22635;DHT22;11484;50.858;4.384;2023-07-08T03:24:45;22.20;87.40
22635;DHT22;11484;50.858;4.384;2023-07-08T03:27:15;22.10;87.80
22635;DHT22;11484;50.858;4.384;2023-07-08T03:29:41;22.10;88.20
22635;DHT22;11484;50.858;4.384;2023-07-08T03:32:09;22.20;88.60
22635;DHT22;11484;50.858;4.384;2023-07-08T03:34:35;22.10;89.10
22635;DHT22;11484;50.858;4.384;2023-07-08T03:37:01;22.00;89.60
22635;DHT22;11484;50.858;4.384;2023-07-08T03:39:27;21.90;90.30
22635;DHT22;11484;50.858;4.384;2023-07-08T03:41:53;21.90;90.50
22635;DHT22;11484;50.858;4.384;2023-07-08T03:44:18;21.90;90.70
22635;DHT22;11484;50.858;4.384;2023-07-08T03:46:46;21.90;90.90
22635;DHT22;11484;50.858;4.384;2023-07-08T03:49:13;22.00;90.90
22635;DHT22;11484;50.858;4.384;2023-07-08T03:51:40;22.00;91.00
22635;DHT22;11484;50.858;4.384;2023-07-08T03:54:08;22.00;91.10
22635;DHT22;11484;50.858;4.384;2023-07-08T03:56:34;22.10;91.30
22635;DHT22;11484;50.858;4.384;2023-07-08T03:59:00;22.10;91.40
22635;DHT22;11484;50.858;4.384;2023-07-08T04:01:26;22.20;91.30
22635;DHT22;11484;50.858;4.384;2023-07-08T04:03:54;22.20;91.20
22635;DHT22;11484;50.858;4.384;2023-07-08T04:06:20;22.20;91.20
22635;DHT22;11484;50.858;4.384;2023-07-08T04:08:46;22.10;91.20
22635;DHT22;11484;50.858;4.384;2023-07-08T04:11:30;22.10;91.50
22635;DHT22;11484;50.858;4.384;2023-07-08T04:13:55;22.10;91.80
22635;DHT22;11484;50.858;4.384;2023-07-08T04:16:23;22.10;91.80
22635;DHT22;11484;50.858;4.384;2023-07-08T04:18:50;22.00;91.30
22635;DHT22;11484;50.858;4.384;2023-07-08T04:21:19;21.90;91.70
22635;DHT22;11484;50.858;4.384;2023-07-08T04:23:45;21.90;92.30
22635;DHT22;11484;50.858;4.384;2023-07-08T04:26:11;21.90;92.30
22635;DHT22;11484;50.858;4.384;2023-07-08T04:28:37;21.90;92.50
22635;DHT22;11484;50.858;4.384;2023-07-08T04:31:03;22.00;92.30
22635;DHT22;11484;50.858;4.384;2023-07-08T04:33:29;22.00;92.00
22635;DHT22;11484;50.858;4.384;2023-07-08T04:35:55;22.00;91.80
22635;DHT22;11484;50.858;4.384;2023-07-08T04:38:24;22.00;91.60
22635;DHT22;11484;50.858;4.384;2023-07-08T04:40:51;22.00;91.60
22635;DHT22;11484;50.858;4.384;2023-07-08T04:43:18;22.00;91.50
22635;DHT22;11484;50.858;4.384;2023-07-08T04:45:48;21.80;91.50
22635;DHT22;11484;50.858;4.384;2023-07-08T04:48:17;21.80;92.20
22635;DHT22;11484;50.858;4.384;2023-07-08T04:50:46;21.70;91.80
22635;DHT22;11484;50.858;4.384;2023-07-08T04:53:12;21.70;92.20
22635;DHT22;11484;50.858;4.384;2023-07-08T04:55:41;21.70;92.30
22635;DHT22;11484;50.858;4.384;2023-07-08T04:58:07;21.90;92.30
22635;DHT22;11484;50.858;4.384;2023-07-08T05:00:33;22.00;91.90
22635;DHT22;11484;50.858;4.384;2023-07-08T05:02:59;21.90;91.20
22635;DHT22;11484;50.858;4.384;2023-07-08T05:05:25;21.90;91.50
22635;DHT22;11484;50.858;4.384;2023-07-08T05:07:52;22.10;91.70
22635;DHT22;11484;50.858;4.384;2023-07-08T05:10:18;22.20;91.40
22635;DHT22;11484;50.858;4.384;2023-07-08T05:12:45;22.30;91.20
22635;DHT22;11484;50.858;4.384;2023-07-08T05:15:11;22.40;90.90
22635;DHT22;11484;50.858;4.384;2023-07-08T05:17:38;22.40;90.40
22635;DHT22;11484;50.858;4.384;2023-07-08T05:20:06;22.50;90.50
22635;DHT22;11484;50.858;4.384;2023-07-08T05:22:33;22.60;90.70
22635;DHT22;11484;50.858;4.384;2023-07-08T05:24:59;22.70;90.50
22635;DHT22;11484;50.858;4.384;2023-07-08T05:27:25;22.80;90.30
22635;DHT22;11484;50.858;4.384;2023-07-08T05:29:51;22.90;90.10
22635;DHT22;11484;50.858;4.384;2023-07-08T05:32:17;23.00;90.00
22635;DHT22;11484;50.858;4.384;2023-07-08T05:34:44;23.10;90.00
22635;DHT22;11484;50.858;4.384;2023-07-08T05:37:11;23.20;89.30
22635;DHT22;11484;50.858;4.384;2023-07-08T05:39:36;23.20;89.40
22635;DHT22;11484;50.858;4.384;2023-07-08T05:42:02;23.20;89.60
22635;DHT22;11484;50.858;4.384;2023-07-08T05:44:28;23.20;89.80
22635;DHT22;11484;50.858;4.384;2023-07-08T05:46:54;23.20;89.30
22635;DHT22;11484;50.858;4.384;2023-07-08T05:49:20;23.30;88.00
22635;DHT22;11484;50.858;4.384;2023-07-08T05:51:45;23.50;87.60
22635;DHT22;11484;50.858;4.384;2023-07-08T05:54:12;23.60;86.30
22635;DHT22;11484;50.858;4.384;2023-07-08T05:56:38;23.70;85.60
22635;DHT22;11484;50.858;4.384;2023-07-08T05:59:04;23.90;85.40
22635;DHT22;11484;50.858;4.384;2023-07-08T06:01:30;23.90;84.40
22635;DHT22;11484;50.858;4.384;2023-07-08T06:03:57;24.10;85.00
22635;DHT22;11484;50.858;4.384;2023-07-08T06:06:25;24.30;84.60
22635;DHT22;11484;50.858;4.384;2023-07-08T06:08:51;24.50;83.80
22635;DHT22;11484;50.858;4.384;2023-07-08T06:11:17;24.80;83.10
22635;DHT22;11484;50.858;4.384;2023-07-08T06:13:44;25.50;80.80
22635;DHT22;11484;50.858;4.384;2023-07-08T06:16:10;26.80;76.20
22635;DHT22;11484;50.858;4.384;2023-07-08T06:18:36;28.20;71.60
22635;DHT22;11484;50.858;4.384;2023-07-08T06:21:02;29.60;68.00
22635;DHT22;11484;50.858;4.384;2023-07-08T06:23:29;30.90;64.90
22635;DHT22;11484;50.858;4.384;2023-07-08T06:25:55;32.20;60.90
22635;DHT22;11484;50.858;4.384;2023-07-08T06:28:21;33.10;56.70
22635;DHT22;11484;50.858;4.384;2023-07-08T06:30:47;33.80;54.40
22635;DHT22;11484;50.858;4.384;2023-07-08T06:33:13;34.80;52.20
22635;DHT22;11484;50.858;4.384;2023-07-08T06:35:40;35.40;50.40
22635;DHT22;11484;50.858;4.384;2023-07-08T06:38:06;35.90;48.40
22635;DHT22;11484;50.858;4.384;2023-07-08T06:40:33;36.20;48.20
22635;DHT22;11484;50.858;4.384;2023-07-08T06:42:59;36.40;47.60
22635;DHT22;11484;50.858;4.384;2023-07-08T06:45:24;37.20;46.80
22635;DHT22;11484;50.858;4.384;2023-07-08T06:47:50;37.80;45.10
22635;DHT22;11484;50.858;4.384;2023-07-08T06:50:16;38.30;44.00
22635;DHT22;11484;50.858;4.384;2023-07-08T06:52:43;39.00;43.60
22635;DHT22;11484;50.858;4.384;2023-07-08T06:55:11;39.60;41.90
22635;DHT22;11484;50.858;4.384;2023-07-08T06:57:37;40.30;41.30
22635;DHT22;11484;50.858;4.384;2023-07-08T07:00:06;40.80;39.50
22635;DHT22;11484;50.858;4.384;2023-07-08T07:02:39;41.30;39.30
22635;DHT22;11484;50.858;4.384;2023-07-08T07:05:06;41.50;38.70
22635;DHT22;11484;50.858;4.384;2023-07-08T07:07:32;41.90;38.30
22635;DHT22;11484;50.858;4.384;2023-07-08T07:10:00;42.30;37.70
22635;DHT22;11484;50.858;4.384;2023-07-08T07:12:29;42.80;37.20
22635;DHT22;11484;50.858;4.384;2023-07-08T07:14:54;43.10;36.90
22635;DHT22;11484;50.858;4.384;2023-07-08T07:17:21;43.50;36.40
22635;DHT22;11484;50.858;4.384;2023-07-08T07:19:47;43.70;35.00
22635;DHT22;11484;50.858;4.384;2023-07-08T07:22:13;44.10;35.00
22635;DHT22;11484;50.858;4.384;2023-07-08T07:24:39;44.40;34.10
22635;DHT22;11484;50.858;4.384;2023-07-08T07:27:05;44.60;34.10
22635;DHT22;11484;50.858;4.384;2023-07-08T07:29:42;44.60;33.90
22635;DHT22;11484;50.858;4.384;2023-07-08T07:32:12;44.70;33.40
22635;DHT22;11484;50.858;4.384;2023-07-08T07:34:47;45.00;32.80
22635;DHT22;11484;50.858;4.384;2023-07-08T07:37:14;44.70;33.20
22635;DHT22;11484;50.858;4.384;2023-07-08T07:39:43;44.90;32.90
22635;DHT22;11484;50.858;4.384;2023-07-08T07:42:09;45.00;32.70
22635;DHT22;11484;50.858;4.384;2023-07-08T07:44:35;45.10;33.40
22635;DHT22;11484;50.858;4.384;2023-07-08T07:47:02;45.20;32.90
22635;DHT22;11484;50.858;4.384;2023-07-08T07:49:28;45.50;32.50
22635;DHT22;11484;50.858;4.384;2023-07-08T07:51:53;44.70;32.50
22635;DHT22;11484;50.858;4.384;2023-07-08T07:54:19;44.60;33.20
22635;DHT22;11484;50.858;4.384;2023-07-08T07:56:45;44.60;32.10
22635;DHT22;11484;50.858;4.384;2023-07-08T07:59:11;44.00;33.10
22635;DHT22;11484;50.858;4.384;2023-07-08T08:01:37;44.60;32.50
22635;DHT22;11484;50.858;4.384;2023-07-08T08:04:03;45.10;31.80
22635;DHT22;11484;50.858;4.384;2023-07-08T08:06:29;45.20;31.10
22635;DHT22;11484;50.858;4.384;2023-07-08T08:08:54;45.80;30.90
22635;DHT22;11484;50.858;4.384;2023-07-08T08:11:22;46.00;29.70
22635;DHT22;11484;50.858;4.384;2023-07-08T08:13:47;46.30;29.60
22635;DHT22;11484;50.858;4.384;2023-07-08T08:16:13;46.60;29.50
22635;DHT22;11484;50.858;4.384;2023-07-08T08:18:39;47.10;29.50
22635;DHT22;11484;50.858;4.384;2023-07-08T08:21:05;47.40;29.50
22635;DHT22;11484;50.858;4.384;2023-07-08T08:23:31;47.40;29.50
22635;DHT22;11484;50.858;4.384;2023-07-08T08:25:56;47.50;29.10
22635;DHT22;11484;50.858;4.384;2023-07-08T08:28:22;47.60;29.50
22635;DHT22;11484;50.858;4.384;2023-07-08T08:30:49;47.50;28.90
22635;DHT22;11484;50.858;4.384;2023-07-08T08:33:15;47.60;29.50
22635;DHT22;11484;50.858;4.384;2023-07-08T08:35:44;47.90;28.70
22635;DHT22;11484;50.858;4.384;2023-07-08T08:38:10;48.10;28.50
22635;DHT22;11484;50.858;4.384;2023-07-08T08:40:40;48.30;28.70
22635;DHT22;11484;50.858;4.384;2023-07-08T08:43:12;48.30;28.20
22635;DHT22;11484;50.858;4.384;2023-07-08T08:46:04;48.10;28.60
22635;DHT22;11484;50.858;4.384;2023-07-08T08:48:33;47.90;28.90
22635;DHT22;11484;50.858;4.384;2023-07-08T08:51:12;48.10;28.30
22635;DHT22;11484;50.858;4.384;2023-07-08T08:53:38;48.30;28.20
22635;DHT22;11484;50.858;4.384;2023-07-08T08:56:13;47.40;28.40
22635;DHT22;11484;50.858;4.384;2023-07-08T09:01:25;46.60;28.50
22635;DHT22;11484;50.858;4.384;2023-07-08T09:03:58;46.70;28.60
22635;DHT22;11484;50.858;4.384;2023-07-08T09:06:34;46.80;28.30
22635;DHT22;11484;50.858;4.384;2023-07-08T09:09:21;46.60;28.30
22635;DHT22;11484;50.858;4.384;2023-07-08T09:14:29;47.20;28.10
22635;DHT22;11484;50.858;4.384;2023-07-08T09:19:52;46.70;28.10
22635;DHT22;11484;50.858;4.384;2023-07-08T09:22:53;46.70;28.50
22635;DHT22;11484;50.858;4.384;2023-07-08T09:25:42;46.80;28.40
22635;DHT22;11484;50.858;4.384;2023-07-08T09:28:09;46.80;28.40
22635;DHT22;11484;50.858;4.384;2023-07-08T09:30:38;46.80;28.00
22635;DHT22;11484;50.858;4.384;2023-07-08T09:33:04;47.40;28.20
22635;DHT22;11484;50.858;4.384;2023-07-08T09:35:42;47.60;28.00
22635;DHT22;11484;50.858;4.384;2023-07-08T09:38:13;47.00;28.30
22635;DHT22;11484;50.858;4.384;2023-07-08T09:40:42;47.40;27.70
22635;DHT22;11484;50.858;4.384;2023-07-08T09:45:48;47.30;27.70
22635;DHT22;11484;50.858;4.384;2023-07-08T09:48:24;47.60;27.80
22635;DHT22;11484;50.858;4.384;2023-07-08T09:50:52;46.60;28.20
22635;DHT22;11484;50.858;4.384;2023-07-08T09:53:19;45.60;27.80
22635;DHT22;11484;50.858;4.384;2023-07-08T09:55:45;44.70;29.20
22635;DHT22;11484;50.858;4.384;2023-07-08T09:58:15;45.00;29.20
22635;DHT22;11484;50.858;4.384;2023-07-08T10:00:42;45.70;29.30
22635;DHT22;11484;50.858;4.384;2023-07-08T10:03:28;45.00;28.60
22635;DHT22;11484;50.858;4.384;2023-07-08T10:09:02;44.40;28.90
22635;DHT22;11484;50.858;4.384;2023-07-08T10:11:30;44.40;29.10
22635;DHT22;11484;50.858;4.384;2023-07-08T10:14:01;44.60;28.90
22635;DHT22;11484;50.858;4.384;2023-07-08T10:16:31;44.70;29.20
22635;DHT22;11484;50.858;4.384;2023-07-08T10:18:59;44.70;29.00
22635;DHT22;11484;50.858;4.384;2023-07-08T10:24:36;43.90;29.60
22635;DHT22;11484;50.858;4.384;2023-07-08T10:27:19;43.20;29.90
22635;DHT22;11484;50.858;4.384;2023-07-08T10:30:01;43.40;29.90
22635;DHT22;11484;50.858;4.384;2023-07-08T10:32:44;43.10;29.40
22635;DHT22;11484;50.858;4.384;2023-07-08T10:35:19;42.10;30.00
22635;DHT22;11484;50.858;4.384;2023-07-08T10:43:27;41.70;31.40
22635;DHT22;11484;50.858;4.384;2023-07-08T10:56:34;40.40;33.30
22635;DHT22;11484;50.858;4.384;2023-07-08T11:04:39;39.70;34.70
22635;DHT22;11484;50.858;4.384;2023-07-08T11:07:24;38.70;35.00
22635;DHT22;11484;50.858;4.384;2023-07-08T11:09:56;37.80;36.60
22635;DHT22;11484;50.858;4.384;2023-07-08T11:12:38;36.90;38.10
22635;DHT22;11484;50.858;4.384;2023-07-08T11:15:23;36.60;40.20
22635;DHT22;11484;50.858;4.384;2023-07-08T11:18:24;36.10;40.20
22635;DHT22;11484;50.858;4.384;2023-07-08T11:21:27;35.70;40.40
22635;DHT22;11484;50.858;4.384;2023-07-08T11:26:57;35.60;40.80
22635;DHT22;11484;50.858;4.384;2023-07-08T11:31:58;35.50;41.60
22635;DHT22;11484;50.858;4.384;2023-07-08T11:34:24;35.30;41.80
22635;DHT22;11484;50.858;4.384;2023-07-08T11:36:52;34.90;42.10
22635;DHT22;11484;50.858;4.384;2023-07-08T11:39:41;34.70;42.70
22635;DHT22;11484;50.858;4.384;2023-07-08T11:44:54;34.70;43.40
22635;DHT22;11484;50.858;4.384;2023-07-08T11:49:53;34.40;43.60
22635;DHT22;11484;50.858;4.384;2023-07-08T11:52:21;34.30;43.90
22635;DHT22;11484;50.858;4.384;2023-07-08T11:54:56;34.30;44.50
22635;DHT22;11484;50.858;4.384;2023-07-08T11:57:38;34.00;45.10
22635;DHT22;11484;50.858;4.384;2023-07-08T12:00:31;33.70;45.60
22635;DHT22;11484;50.858;4.384;2023-07-08T12:03:21;33.50;46.60
22635;DHT22;11484;50.858;4.384;2023-07-08T12:05:47;33.40;46.60
22635;DHT22;11484;50.858;4.384;2023-07-08T12:08:15;33.70;45.40
22635;DHT22;11484;50.858;4.384;2023-07-08T12:10:52;33.90;45.40
22635;DHT22;11484;50.858;4.384;2023-07-08T12:13:23;34.00;44.80
22635;DHT22;11484;50.858;4.384;2023-07-08T12:15:49;34.10;45.80
22635;DHT22;11484;50.858;4.384;2023-07-08T12:18:20;34.00;45.80
22635;DHT22;11484;50.858;4.384;2023-07-08T12:20:54;33.80;46.40
22635;DHT22;11484;50.858;4.384;2023-07-08T12:23:23;33.70;46.40
22635;DHT22;11484;50.858;4.384;2023-07-08T12:25:50;33.70;46.80
22635;DHT22;11484;50.858;4.384;2023-07-08T12:28:16;33.60;47.10
22635;DHT22;11484;50.858;4.384;2023-07-08T12:30:43;33.70;47.70
22635;DHT22;11484;50.858;4.384;2023-07-08T12:33:16;33.80;47.10
22635;DHT22;11484;50.858;4.384;2023-07-08T12:35:44;33.80;47.20
22635;DHT22;11484;50.858;4.384;2023-07-08T12:38:29;33.70;47.50
22635;DHT22;11484;50.858;4.384;2023-07-08T12:41:01;33.60;47.90
22635;DHT22;11484;50.858;4.384;2023-07-08T12:43:27;33.40;48.50
22635;DHT22;11484;50.858;4.384;2023-07-08T12:45:53;33.30;48.80
22635;DHT22;11484;50.858;4.384;2023-07-08T12:48:18;33.20;49.00
22635;DHT22;11484;50.858;4.384;2023-07-08T12:50:44;33.10;48.90
22635;DHT22;11484;50.858;4.384;2023-07-08T12:53:11;33.20;49.10
22635;DHT22;11484;50.858;4.384;2023-07-08T12:55:40;33.20;49.50
22635;DHT22;11484;50.858;4.384;2023-07-08T12:58:18;33.00;53.10
22635;DHT22;11484;50.858;4.384;2023-07-08T13:00:50;32.70;53.90
22635;DHT22;11484;50.858;4.384;2023-07-08T13:03:21;32.40;54.30
22635;DHT22;11484;50.858;4.384;2023-07-08T13:05:48;32.10;55.10
22635;DHT22;11484;50.858;4.384;2023-07-08T13:08:17;32.00;54.40
22635;DHT22;11484;50.858;4.384;2023-07-08T13:10:44;31.50;54.80
22635;DHT22;11484;50.858;4.384;2023-07-08T13:13:26;31.20;55.50
22635;DHT22;11484;50.858;4.384;2023-07-08T13:15:53;30.70;65.70
22635;DHT22;11484;50.858;4.384;2023-07-08T13:18:33;29.00;74.70
22635;DHT22;11484;50.858;4.384;2023-07-08T13:21:00;26.90;89.20
22635;DHT22;11484;50.858;4.384;2023-07-08T13:23:27;25.60;99.90
22635;DHT22;11484;50.858;4.384;2023-07-08T13:25:53;24.40;99.90
22635;DHT22;11484;50.858;4.384;2023-07-08T13:30:57;23.40;99.90
22635;DHT22;11484;50.858;4.384;2023-07-08T13:33:29;23.30;99.90
22635;DHT22;11484;50.858;4.384;2023-07-08T13:35:55;23.30;99.90
22635;DHT22;11484;50.858;4.384;2023-07-08T13:38:24;23.40;99.90
22635;DHT22;11484;50.858;4.384;2023-07-08T13:40:59;23.50;99.90
22635;DHT22;11484;50.858;4.384;2023-07-08T13:43:27;23.70;99.90
22635;DHT22;11484;50.858;4.384;2023-07-08T13:45:53;23.90;99.90
22635;DHT22;11484;50.858;4.384;2023-07-08T13:48:26;24.20;99.90
22635;DHT22;11484;50.858;4.384;2023-07-08T13:51:02;24.60;99.90
22635;DHT22;11484;50.858;4.384;2023-07-08T13:58:50;25.60;99.90
22635;DHT22;11484;50.858;4.384;2023-07-08T14:01:22;26.00;99.90
22635;DHT22;11484;50.858;4.384;2023-07-08T14:03:49;26.10;99.90
22635;DHT22;11484;50.858;4.384;2023-07-08T14:06:17;26.20;99.90
22635;DHT22;11484;50.858;4.384;2023-07-08T14:08:43;26.30;99.90
22635;DHT22;11484;50.858;4.384;2023-07-08T14:11:09;26.20;99.90
22635;DHT22;11484;50.858;4.384;2023-07-08T14:13:35;26.30;99.90
22635;DHT22;11484;50.858;4.384;2023-07-08T14:16:24;26.60;99.90
22635;DHT22;11484;50.858;4.384;2023-07-08T14:18:58;26.90;99.90
22635;DHT22;11484;50.858;4.384;2023-07-08T14:21:24;27.10;99.90
22635;DHT22;11484;50.858;4.384;2023-07-08T14:23:50;27.20;99.90
22635;DHT22;11484;50.858;4.384;2023-07-08T14:26:17;27.20;99.90
22635;DHT22;11484;50.858;4.384;2023-07-08T14:28:43;27.30;99.90
22635;DHT22;11484;50.858;4.384;2023-07-08T14:31:14;27.40;99.90
22635;DHT22;11484;50.858;4.384;2023-07-08T14:33:41;27.50;99.90
22635;DHT22;11484;50.858;4.384;2023-07-08T14:36:24;27.60;99.90
22635;DHT22;11484;50.858;4.384;2023-07-08T14:38:50;27.70;99.90
22635;DHT22;11484;50.858;4.384;2023-07-08T14:41:15;27.70;99.90
22635;DHT22;11484;50.858;4.384;2023-07-08T14:43:41;27.70;99.90
22635;DHT22;11484;50.858;4.384;2023-07-08T14:46:10;27.80;99.90
22635;DHT22;11484;50.858;4.384;2023-07-08T14:48:36;27.90;99.90
22635;DHT22;11484;50.858;4.384;2023-07-08T14:51:02;28.10;99.90
22635;DHT22;11484;50.858;4.384;2023-07-08T14:53:28;28.30;99.90
22635;DHT22;11484;50.858;4.384;2023-07-08T14:55:56;28.50;99.90
22635;DHT22;11484;50.858;4.384;2023-07-08T14:58:29;28.60;99.90
22635;DHT22;11484;50.858;4.384;2023-07-08T15:00:58;28.60;99.90
22635;DHT22;11484;50.858;4.384;2023-07-08T15:03:25;28.70;99.90
22635;DHT22;11484;50.858;4.384;2023-07-08T15:05:51;28.80;99.90
22635;DHT22;11484;50.858;4.384;2023-07-08T15:08:17;28.80;99.90
22635;DHT22;11484;50.858;4.384;2023-07-08T15:10:51;28.90;99.90
22635;DHT22;11484;50.858;4.384;2023-07-08T15:13:22;28.90;99.90
22635;DHT22;11484;50.858;4.384;2023-07-08T15:15:51;28.90;96.50
22635;DHT22;11484;50.858;4.384;2023-07-08T15:18:18;29.00;93.70
22635;DHT22;11484;50.858;4.384;2023-07-08T15:20:45;29.10;93.30
22635;DHT22;11484;50.858;4.384;2023-07-08T15:23:11;29.20;91.80
22635;DHT22;11484;50.858;4.384;2023-07-08T15:25:43;29.40;92.90
22635;DHT22;11484;50.858;4.384;2023-07-08T15:28:20;29.40;94.60
22635;DHT22;11484;50.858;4.384;2023-07-08T15:30:50;29.40;94.30
22635;DHT22;11484;50.858;4.384;2023-07-08T15:33:22;29.60;94.50
22635;DHT22;11484;50.858;4.384;2023-07-08T15:36:00;29.70;95.00
22635;DHT22;11484;50.858;4.384;2023-07-08T15:38:26;29.80;95.10
22635;DHT22;11484;50.858;4.384;2023-07-08T15:40:52;29.90;92.80
22635;DHT22;11484;50.858;4.384;2023-07-08T15:43:19;30.00;92.70
22635;DHT22;11484;50.858;4.384;2023-07-08T15:45:45;30.00;92.30
22635;DHT22;11484;50.858;4.384;2023-07-08T15:48:15;30.10;92.40
22635;DHT22;11484;50.858;4.384;2023-07-08T15:50:41;30.20;92.00
22635;DHT22;11484;50.858;4.384;2023-07-08T15:53:09;30.20;91.50
22635;DHT22;11484;50.858;4.384;2023-07-08T15:55:38;30.30;91.90
22635;DHT22;11484;50.858;4.384;2023-07-08T15:58:20;30.50;91.80
22635;DHT22;11484;50.858;4.384;2023-07-08T16:00:48;30.50;91.40
22635;DHT22;11484;50.858;4.384;2023-07-08T16:03:26;30.60;91.30
22635;DHT22;11484;50.858;4.384;2023-07-08T16:05:53;30.60;90.40
22635;DHT22;11484;50.858;4.384;2023-07-08T16:08:20;30.70;90.50
22635;DHT22;11484;50.858;4.384;2023-07-08T16:11:13;30.70;90.70
22635;DHT22;11484;50.858;4.384;2023-07-08T16:13:41;30.60;91.00
22635;DHT22;11484;50.858;4.384;2023-07-08T16:16:10;30.60;91.10
22635;DHT22;11484;50.858;4.384;2023-07-08T16:18:36;30.50;91.00
22635;DHT22;11484;50.858;4.384;2023-07-08T16:21:03;30.50;91.50
22635;DHT22;11484;50.858;4.384;2023-07-08T16:23:29;30.40;91.80
22635;DHT22;11484;50.858;4.384;2023-07-08T16:25:54;30.50;91.30
22635;DHT22;11484;50.858;4.384;2023-07-08T16:28:43;30.40;91.40
22635;DHT22;11484;50.858;4.384;2023-07-08T16:31:18;30.30;91.60
22635;DHT22;11484;50.858;4.384;2023-07-08T16:33:44;30.30;91.50
22635;DHT22;11484;50.858;4.384;2023-07-08T16:36:17;30.30;92.10
22635;DHT22;11484;50.858;4.384;2023-07-08T16:38:44;30.20;92.00
22635;DHT22;11484;50.858;4.384;2023-07-08T16:41:15;30.20;91.80
22635;DHT22;11484;50.858;4.384;2023-07-08T16:43:42;30.30;91.90
22635;DHT22;11484;50.858;4.384;2023-07-08T16:46:12;30.20;91.60
22635;DHT22;11484;50.858;4.384;2023-07-08T16:48:39;30.20;91.70